Time;durP1;ratioP1;P1;durP2;ratioP2;P2;SDS_P1;SDS_P2;PMS_P1;PMS_P2;Temp;Humidity;BMP_temperature;BMP_pressure;BME280_temperature;BME280_humidity;BME280_pressure;Samples;Min_cycle;Max_cycle;Signal;HPM_P1;HPM_P2
2021/07/13 00:01:01;;;;;;;;;;;17.10;99.90;;;;;;5102441;28;20048;-67
2021/07/13 00:03:26;;;;;;;8.40;3.25;;;17.10;99.90;;;;;;5102597;28;19995;-67
2021/07/13 00:05:52;;;;;;;;;;;17.00;99.90;;;;;;5103120;28;20403;-67
2021/07/13 00:08:17;;;;;;;5.60;3.25;;;17.10;99.90;;;;;;5102204;28;20303;-67
2021/07/13 00:10:43;;;;;;;;;;;17.10;99.90;;;;;;5102411;28;20531;-67
2021/07/13 00:13:09;;;;;;;6.07;3.00;;;17.10;99.90;;;;;;5103243;28;19945;-67
2021/07/13 00:15:38;;;;;;;8.30;3.25;;;17.10;99.90;;;;;;5094032;28;20028;-67
2021/07/13 00:18:05;;;;;;;5.88;2.80;;;17.00;99.90;;;;;;5093829;28;20040;-67
2021/07/13 00:20:31;;;;;;;5.45;3.63;;;17.00;99.90;;;;;;5089631;28;20048;-67
2021/07/13 00:22:58;;;;;;;9.27;3.47;;;17.00;99.90;;;;;;5088347;28;20044;-67
2021/07/13 00:25:25;;;;;;;12.95;3.30;;;16.90;99.90;;;;;;5089284;28;20040;-67
2021/07/13 00:27:51;;;;;;;3.88;3.25;;;16.90;99.90;;;;;;5088773;28;20032;-67
2021/07/13 00:30:18;;;;;;;;;;;16.90;99.90;;;;;;5090518;28;20045;-67
2021/07/13 00:32:45;;;;;;;4.95;2.72;;;16.90;99.90;;;;;;5089480;28;19955;-67
2021/07/13 00:35:11;;;;;;;3.60;2.97;;;16.80;99.90;;;;;;5089418;28;20040;-67
2021/07/13 00:37:36;;;;;;;;;;;16.80;99.90;;;;;;5090162;28;20044;-67
2021/07/13 00:40:04;;;;;;;7.47;2.53;;;16.80;99.90;;;;;;5089004;28;19920;-67
2021/07/13 00:42:29;;;;;;;10.48;3.13;;;16.80;99.90;;;;;;5090631;28;20412;-68
2021/07/13 00:44:55;;;;;;;;;;;16.80;99.90;;;;;;5088741;28;20586;-67
2021/07/13 00:47:22;;;;;;;6.97;2.78;;;16.90;99.90;;;;;;5087137;28;20295;-67
2021/07/13 00:49:49;;;;;;;3.58;3.00;;;;;;;;;;5089814;28;20032;-67
2021/07/13 00:52:15;;;;;;;5.32;3.30;;;;;;;;;;5089132;28;20059;-67
2021/07/13 00:54:41;;;;;;;;;;;;;;;;;;5091234;28;20040;-67
2021/07/13 00:57:08;;;;;;;4.47;3.03;;;;;;;;;;5090548;28;20052;-67
2021/07/13 00:59:34;;;;;;;8.93;3.03;;;;;;;;;;5077989;28;20037;-67
2021/07/13 01:02:00;;;;;;;5.25;3.13;;;;;;;;;;5067745;28;20075;-67
2021/07/13 01:04:25;;;;;;;;;;;;;;;;;;5068392;28;20068;-67
2021/07/13 01:06:58;;;;;;;9.27;2.80;;;;;;;;;;5083815;28;19920;-67
2021/07/13 01:09:44;;;;;;;4.82;2.80;;;;;;;;;;5068309;28;20488;-66
2021/07/13 01:12:30;;;;;;;3.17;2.38;;;;;;;;;;5068506;28;20484;-66
2021/07/13 01:14:57;;;;;;;3.67;2.93;;;;;;;;;;5067199;28;20407;-66
2021/07/13 01:17:32;;;;;;;12.32;3.20;;;;;;;;;;5085611;28;20071;-67
2021/07/13 01:20:14;;;;;;;5.88;2.47;;;;;;;;;;5089150;28;20040;-67
2021/07/13 01:22:43;;;;;;;6.88;2.78;;;;;;;;;;5088203;28;20058;-67
2021/07/13 01:25:28;;;;;;;5.80;2.88;;;;;;;;;;5088796;28;20035;-67
2021/07/13 01:28:05;;;;;;;5.68;2.88;;;;;;;;;;5068885;28;20040;-67
2021/07/13 01:30:31;;;;;;;;;;;;;;;;;;5067070;28;20040;-67
2021/07/13 01:33:03;;;;;;;3.65;3.15;;;;;;;;;;5069438;28;19920;-67
2021/07/13 01:35:33;;;;;;;3.97;3.22;;;;;;;;;;5088488;28;20531;-67
2021/07/13 01:38:00;;;;;;;7.88;2.92;;;;;;;;;;5088322;28;20699;-67
2021/07/13 01:40:27;;;;;;;6.78;3.17;;;;;;;;;;5088745;28;20046;-67
2021/07/13 01:42:53;;;;;;;2.83;2.38;;;;;;;;;;5088379;28;20036;-67
2021/07/13 01:45:19;;;;;;;8.85;2.90;;;;;;;;;;5079598;28;20079;-67
2021/07/13 01:47:46;;;;;;;3.75;2.83;;;;;;;;;;5088034;28;20027;-67
2021/07/13 01:50:13;;;;;;;5.25;2.95;;;;;;;;;;5087195;28;20043;-67
2021/07/13 01:52:40;;;;;;;6.30;2.97;;;;;;;;;;5087616;28;20040;-67
2021/07/13 01:55:06;;;;;;;3.67;2.90;;;;;;;;;;5088184;28;20078;-67
2021/07/13 01:57:33;;;;;;;6.22;3.08;;;;;;;;;;5086967;28;20045;-67
2021/07/13 02:00:00;;;;;;;4.20;2.50;;;;;;;;;;5103582;28;20774;-68
2021/07/13 02:02:27;;;;;;;4.30;2.75;;;;;;;;;;5087614;28;20036;-67
2021/07/13 02:04:53;;;;;;;3.15;2.85;;;;;;;;;;5088430;28;20051;-67
2021/07/13 02:07:20;;;;;;;4.13;3.22;;;;;;;;;;5087272;28;20130;-67
2021/07/13 02:09:46;;;;;;;4.88;3.25;;;;;;;;;;5088089;28;20561;-67
2021/07/13 02:12:12;;;;;;;3.75;2.80;;;;;;;;;;5085452;28;20040;-67
2021/07/13 02:14:38;;;;;;;8.00;2.85;;;;;;;;;;5084689;28;20044;-67
2021/07/13 02:17:04;;;;;;;;;;;;;;;;;;5082054;28;20039;-67
2021/07/13 02:19:30;;;;;;;7.00;2.95;;;;;;;;;;5102835;28;19939;-67
2021/07/13 02:21:57;;;;;;;8.05;3.05;;;;;;;;;;5087592;28;20116;-67
2021/07/13 02:24:23;;;;;;;5.18;2.80;;;;;;;;;;5087479;28;20550;-67
2021/07/13 02:26:54;;;;;;;7.30;3.80;;;;;;;;;;5087536;28;20492;-67
2021/07/13 02:29:22;;;;;;;6.82;3.28;;;;;;;;;;5087310;28;20480;-67
2021/07/13 02:31:56;;;;;;;3.95;2.92;;;;;;;;;;5086545;28;20028;-67
2021/07/13 02:34:23;;;;;;;8.20;3.17;;;;;;;;;;5087538;28;20040;-67
2021/07/13 02:36:51;;;;;;;4.95;3.30;;;;;;;;;;5087354;28;20119;-67
2021/07/13 02:39:19;;;;;;;6.25;3.20;;;;;;;;;;5088823;28;20496;-67
2021/07/13 02:41:46;;;;;;;5.22;3.10;;;;;;;;;;5087118;28;20036;-67
2021/07/13 02:44:12;;;;;;;6.82;3.80;;;;;;;;;;5087507;28;20040;-67
2021/07/13 02:46:43;;;;;;;7.32;3.30;;;;;;;;;;5076498;28;20050;-67
2021/07/13 02:49:11;;;;;;;7.47;3.35;;;;;;;;;;5087259;28;20411;-67
2021/07/13 02:51:38;;;;;;;8.43;3.05;;;;;;;;;;5087087;28;20488;-66
2021/07/13 02:54:06;;;;;;;5.82;2.95;;;;;;;;;;5086948;28;20043;-67
2021/07/13 02:56:33;;;;;;;7.47;3.35;;;;;;;;;;5086594;28;20036;-67
2021/07/13 02:59:03;;;;;;;8.15;4.85;;;;;;;;;;5087857;28;20047;-67
2021/07/13 03:01:30;;;;;;;10.05;3.30;;;;;;;;;;5086742;28;20032;-67
2021/07/13 03:03:56;;;;;;;10.80;3.20;;;;;;;;;;5087657;28;20571;-67
2021/07/13 03:06:22;;;;;;;5.22;3.85;;;;;;;;;;5085728;28;20040;-67
2021/07/13 03:08:49;;;;;;;6.35;3.78;;;;;;;;;;5087635;28;20115;-67
2021/07/13 03:11:15;;;;;;;5.22;3.72;;;;;;;;;;5086239;28;20046;-67
2021/07/13 03:13:41;;;;;;;5.57;3.45;;;;;;;;;;5085681;28;20121;-67
2021/07/13 03:16:09;;;;;;;10.02;3.63;;;;;;;;;;5078796;28;20040;-67
2021/07/13 03:18:35;;;;;;;6.53;3.25;;;;;;;;;;5087213;28;20111;-66
2021/07/13 03:21:01;;;;;;;;;;;;;;;;;;5087917;28;20754;-66
2021/07/13 03:23:28;;;;;;;6.45;3.28;;;;;;;;;;5087316;28;19920;-67
2021/07/13 03:25:54;;;;;;;12.45;3.22;;;;;;;;;;5086821;28;20052;-66
2021/07/13 03:28:21;;;;;;;7.95;3.58;;;;;;;;;;5087306;28;20040;-66
2021/07/13 03:30:47;;;;;;;4.53;3.38;;;;;;;;;;5085987;28;20036;-67
2021/07/13 03:33:14;;;;;;;4.22;2.90;;;;;;;;;;5087586;28;20534;-67
2021/07/13 03:35:40;;;;;;;8.07;3.00;;;;;;;;;;5086943;28;20036;-66
2021/07/13 03:38:07;;;;;;;4.32;3.10;;;;;;;;;;5086899;28;20043;-67
2021/07/13 03:40:33;;;;;;;6.28;3.45;;;;;;;;;;5086881;28;20051;-67
2021/07/13 03:43:00;;;;;;;6.55;3.50;;;;;;;;;;5086928;28;20521;-67
2021/07/13 03:45:29;;;;;;;4.85;3.08;;;;;;;;;;5078473;28;20523;-68
2021/07/13 03:47:56;;;;;;;5.05;3.08;;;;;;;;;;5086483;28;20455;-66
2021/07/13 03:50:24;;;;;;;6.07;3.22;;;;;;;;;;5086533;28;20046;-66
2021/07/13 03:52:50;;;;;;;30.33;5.88;;;;;;;;;;5088339;28;20048;-66
2021/07/13 03:55:16;;;;;;;7.88;3.90;;;;;;;;;;5090490;28;20115;-67
2021/07/13 03:57:42;;;;;;;;;;;;;;;;;;5092395;28;20123;-67
2021/07/13 04:00:10;;;;;;;5.25;3.20;;;;;;;;;;5090370;28;19923;-66
2021/07/13 04:02:36;;;;;;;6.13;3.50;;;;;;;;;;5090574;28;20048;-64
2021/07/13 04:05:02;;;;;;;;;;;;;;;;;;5091213;28;20132;-67
2021/07/13 04:07:28;;;;;;;11.30;3.38;;;;;;;;;;5091110;28;20447;-65
2021/07/13 04:09:54;;;;;;;12.10;3.38;;;;;;;;;;5092142;28;20426;-64
2021/07/13 04:12:20;;;;;;;;;;;;;;;;;;5091812;28;20122;-65
2021/07/13 04:14:46;;;;;;;5.45;3.35;;;;;;;;;;5087162;28;19923;-65
2021/07/13 04:17:12;;;;;;;;;;;;;;;;;;5085367;28;20036;-66
2021/07/13 04:19:37;;;;;;;4.78;3.10;;;;;;;;;;5089741;28;19920;-66
2021/07/13 04:22:03;;;;;;;;;;;;;;;;;;5090625;28;20040;-66
2021/07/13 04:24:29;;;;;;;4.75;3.22;;;;;;;;;;5089755;28;19923;-67
2021/07/13 04:26:55;;;;;;;;;;;;;;;;;;5090341;28;20044;-67
2021/07/13 04:29:21;;;;;;;5.38;3.92;;;;;;;;;;5089582;28;19938;-67
2021/07/13 04:31:47;;;;;;;5.15;3.83;;;;;;;;;;5088404;28;20064;-67
2021/07/13 04:34:13;;;;;;;;;;;;;;;;;;5090993;28;20075;-66
2021/07/13 04:36:39;;;;;;;12.80;3.38;;;;;;;;;;5089823;28;20457;-67
2021/07/13 04:39:06;;;;;;;7.38;3.88;;;;;;;;;;5090198;28;20036;-66
2021/07/13 04:41:32;;;;;;;5.13;3.60;;;;;;;;;;5089004;28;20499;-67
2021/07/13 04:43:59;;;;;;;86.15;56.55;;;;;;;;;;5089427;28;20036;-63
2021/07/13 04:46:27;;;;;;;22.90;15.25;;;;;;;;;;5080875;28;20044;-64
2021/07/13 04:48:53;;;;;;;10.20;6.53;;;;;;;;;;5079345;28;20040;-63
2021/07/13 04:53:55;;;;;;;10.05;4.40;;;;;;;;;;5056860;22;20129;-64
2021/07/13 04:56:21;;;;;;;;;;;;;;;;;;4991523;28;20132;-65
2021/07/13 04:58:48;;;;;;;16.63;10.23;;;;;;;;;;5006187;28;20423;-65
2021/07/13 05:01:14;;;;;;;8.88;4.80;;;;;;;;;;5011534;28;20038;-65
2021/07/13 05:03:40;;;;;;;;;;;;;;;;;;4995188;28;20060;-65
2021/07/13 05:06:06;;;;;;;4.47;3.90;;;;;;;;;;4998714;28;20625;-66
2021/07/13 05:08:32;;;;;;;11.25;4.40;;;;;;;;;;4995945;28;20042;-65
2021/07/13 05:10:58;;;;;;;;;;;;;;;;;;4993657;28;20038;-65
2021/07/13 05:13:24;;;;;;;12.70;7.65;;;;;;;;;;4993547;28;19914;-65
2021/07/13 05:15:50;;;;;;;65.65;33.38;;;;;;;;;;4987839;28;20460;-65
2021/07/13 05:18:17;;;;;;;20.60;10.73;;;;;;;;;;4970367;28;20041;-65
2021/07/13 05:20:48;;;;;;;13.25;7.47;;;;;;;;;;4988035;28;20038;-65
2021/07/13 05:23:14;;;;;;;7.43;4.28;;;;;;;;;;4984738;28;20092;-65
2021/07/13 05:25:41;;;;;;;6.55;3.97;;;;;;;;;;5001135;28;20045;-65
2021/07/13 05:28:10;;;;;;;6.97;5.25;;;;;;;;;;4981721;28;20066;-65
2021/07/13 05:30:43;;;;;;;5.80;4.32;;;;;;;;;;4970076;28;20042;-65
2021/07/13 05:33:10;;;;;;;5.93;3.65;;;;;;;;;;4987182;28;20096;-65
2021/07/13 05:35:36;;;;;;;4.82;4.05;;;;;;;;;;4987790;28;20034;-65
2021/07/13 05:38:02;;;;;;;;;;;;;;;;;;4988122;28;20465;-65
2021/07/13 05:40:28;;;;;;;5.25;4.03;;;;;;;;;;4987457;28;20367;-65
2021/07/13 05:42:54;;;;;;;;;;;;;;;;;;4987459;28;20789;-65
2021/07/13 05:45:20;;;;;;;8.25;4.60;;;;;;;;;;4987405;28;19917;-65
2021/07/13 05:47:46;;;;;;;6.18;4.28;;;;;;;;;;4987597;28;20126;-65
2021/07/13 05:50:12;;;;;;;;;;;;;;;;;;4987164;28;20031;-65
2021/07/13 05:52:38;;;;;;;5.05;3.70;;;;;;;;;;4986749;28;19924;-65
2021/07/13 05:55:05;;;;;;;5.97;4.05;;;;;;;;;;4970797;28;20046;-65
2021/07/13 05:57:31;;;;;;;12.02;4.40;;;;;;;;;;4985964;28;20607;-65
2021/07/13 05:59:57;;;;;;;6.00;4.57;;;;;;;;;;4983661;28;20050;-65
2021/07/13 06:02:23;;;;;;;6.72;4.28;;;;;;;;;;4983081;28;20038;-65
2021/07/13 06:04:49;;;;;;;;;;;;;;;;;;4987182;28;20524;-66
2021/07/13 06:07:15;;;;;;;10.85;7.10;;;;;;;;;;4987827;28;19921;-65
2021/07/13 06:09:41;;;;;;;;;;;;;;;;;;4987545;28;20045;-65
2021/07/13 06:12:07;;;;;;;14.23;5.40;;;;;;;;;;4986499;28;19917;-66
2021/07/13 06:14:36;;;;;;;19.88;13.63;;;;;;;;;;4984915;28;20049;-65
2021/07/13 06:17:03;;;;;;;15.77;9.77;;;;;;;;;;4985002;28;20126;-65
2021/07/13 06:19:29;;;;;;;8.25;5.85;;;;;;;;;;4986034;28;20573;-65
2021/07/13 06:21:55;;;;;;;;;;;;;;;;;;4986037;28;20133;-64
2021/07/13 06:24:21;;;;;;;3.17;2.88;;;;;;;;;;4985995;28;20005;-65
2021/07/13 06:26:47;;;;;;;7.15;2.80;;;;;;;;;;4986263;28;20138;-65
2021/07/13 06:29:13;;;;;;;;;;;;;;;;;;4986314;28;20097;-65
2021/07/13 06:31:39;;;;;;;3.38;2.72;;;;;;;;;;4984975;28;19925;-65
2021/07/13 06:34:06;;;;;;;;;;;;;;;;;;4986690;28;20038;-65
2021/07/13 06:36:32;;;;;;;4.53;2.63;;;;;;;;;;4986039;28;20627;-65
2021/07/13 06:38:58;;;;;;;;;;;;;;;;;;4986326;28;20046;-63
2021/07/13 06:41:24;;;;;;;5.55;2.85;;;;;;;;;;4984500;28;19918;-65
2021/07/13 06:43:50;;;;;;;5.75;2.50;;;;;;;;;;4985069;28;20038;-65
2021/07/13 06:46:16;;;;;;;5.05;2.45;;;;;;;;;;4977759;28;20058;-65
2021/07/13 06:48:42;;;;;;;;;;;;;;;;;;4985163;28;20038;-65
2021/07/13 06:51:08;;;;;;;5.68;2.40;;;;;;;;;;4999927;28;20682;-65
2021/07/13 06:53:34;;;;;;;;;;;;;;;;;;4967128;28;20045;-63
2021/07/13 06:56:00;;;;;;;2.83;2.45;;;;;;;;;;4983864;28;19972;-64
2021/07/13 06:58:26;;;;;;;;;;;;;;;;;;4992303;28;20073;-63
2021/07/13 07:00:52;;;;;;;8.55;2.55;;;;;;;;;;4986007;28;19918;-64
2021/07/13 07:03:18;;;;;;;;;;;;;;;;;;4986407;28;20161;-65
2021/07/13 07:05:44;;;;;;;2.88;2.33;;;;;;;;;;4985854;28;19921;-65
2021/07/13 07:08:10;;;;;;;6.40;2.20;;;;;;;;;;4986211;28;20046;-66
2021/07/13 07:10:36;;;;;;;5.32;2.35;;;;;;;;;;4967270;28;20034;-62
2021/07/13 07:13:02;;;;;;;3.45;2.30;;;;;;;;;;4965738;28;20046;-65
2021/07/13 07:15:29;;;;;;;3.35;2.33;;;;;;;;;;4966130;28;20090;-65
2021/07/13 07:17:55;;;;;;;3.47;2.60;;;;;;;;;;4965342;28;20030;-67
2021/07/13 07:20:22;;;;;;;4.18;2.70;;;;;;;;;;4981755;28;20035;-64
2021/07/13 07:22:49;;;;;;;4.03;2.63;;;;;;;;;;4968076;28;20155;-66
2021/07/13 07:25:16;;;;;;;2.28;2.03;;;;;;;;;;4987266;28;20042;-65
2021/07/13 07:27:42;;;;;;;2.85;2.50;;;;;;;;;;4988150;28;20053;-63
2021/07/13 07:30:10;;;;;;;2.80;2.50;;;;;;;;;;4990642;28;20083;-65
2021/07/13 07:32:36;;;;;;;71.85;45.30;;;;;;;;;;4991459;28;20137;-65
2021/07/13 07:35:03;;;;;;;13.65;8.93;;;;;;;;;;4991752;28;20480;-65
2021/07/13 07:37:29;;;;;;;8.68;6.68;;;;;;;;;;4991912;28;20073;-64
2021/07/13 07:39:55;;;;;;;;;;;;;;;;;;4998141;28;20057;-65
2021/07/13 07:42:21;;;;;;;7.60;4.63;;;;;;;;;;5009942;28;19917;-65
2021/07/13 07:44:48;;;;;;;3.58;3.17;;;;;;;;;;5011398;28;20037;-65
2021/07/13 07:47:14;;;;;;;3.63;2.88;;;;;;;;;;5008714;28;20072;-65
2021/07/13 07:49:40;;;;;;;;;;;;;;;;;;5011572;28;20067;-65
2021/07/13 07:52:06;;;;;;;7.45;3.33;;;;;;;;;;5010919;28;20408;-64
2021/07/13 07:54:32;;;;;;;278.33;177.00;;;;;;;;;;4995685;28;20050;-65
2021/07/13 07:56:58;;;;;;;43.33;27.20;;;;;;;;;;4991803;28;20042;-67
2021/07/13 07:59:24;;;;;;;15.98;9.35;;;;;;;;;;4987450;28;20038;-65
2021/07/13 08:01:50;;;;;;;;;;;;;;;;;;4979892;28;20390;-66
2021/07/13 08:04:17;;;;;;;7.78;4.20;;;;;;;;;;4994659;28;19936;-65
2021/07/13 08:06:44;;;;;;;5.72;3.92;;;;;;;;;;5005980;28;20046;-65
2021/07/13 08:09:10;;;;;;;5.07;4.20;;;;;;;;;;5009614;28;20037;-65
2021/07/13 08:11:38;;;;;;;3.35;3.05;;;;;;;;;;5009064;28;20042;-66
2021/07/13 08:14:05;;;;;;;6.78;3.65;;;;;;;;;;4992025;28;20046;-65
2021/07/13 08:16:31;;;;;;;4.50;3.45;;;;;;;;;;4981730;28;20053;-66
2021/07/13 08:18:57;;;;;;;4.43;3.92;;;;;;;;;;4987921;28;20034;-65
2021/07/13 08:21:24;;;;;;;5.30;4.38;;;;;;;;;;4987776;28;20092;-66
2021/07/13 08:23:50;;;;;;;6.78;3.97;;;;;;;;;;4988277;28;20034;-66
2021/07/13 08:26:16;;;;;;;;;;;;;;;;;;4988971;28;20458;-66
2021/07/13 08:28:42;;;;;;;4.85;4.03;;;;;;;;;;4985470;28;19918;-65
2021/07/13 08:31:08;;;;;;;7.07;3.85;;;;;;;;;;4990216;28;20415;-66
2021/07/13 08:33:34;;;;;;;;;;;;;;;;;;4986372;28;20130;-66
2021/07/13 08:36:00;;;;;;;7.25;4.15;;;;;;;;;;4988895;28;19929;-66
2021/07/13 08:38:26;;;;;;;;;;;;;;;;;;4985072;28;20050;-65
2021/07/13 08:40:52;;;;;;;6.00;3.95;;;;;;;;;;4988926;28;19922;-66
2021/07/13 08:43:19;;;;;;;5.43;3.97;;;;;;;;;;4992251;28;20040;-66
2021/07/13 08:45:47;;;;;;;6.30;4.50;;;;;;;;;;4997865;28;20088;-66
2021/07/13 08:48:13;;;;;;;6.65;3.92;;;;;;;;;;4995396;28;20383;-66
2021/07/13 08:50:40;;;;;;;6.07;4.38;;;;;;;;;;4998790;28;20516;-65
2021/07/13 08:53:06;;;;;;;8.88;4.80;;;;;;;;;;4997178;28;20057;-65
2021/07/13 08:55:34;;;;;;;6.03;4.65;;;;;;;;;;4999206;28;20046;-65
2021/07/13 08:58:00;;;;;;;6.50;4.10;;;;;;;;;;4999372;28;20493;-65
2021/07/13 09:00:26;;;;;;;8.30;4.70;;;;;;;;;;4992782;28;20034;-66
2021/07/13 09:02:52;;;;;;;;;;;;;;;;;;4996579;28;20511;-66
2021/07/13 09:05:21;;;;;;;13.73;8.68;;;;;;;;;;5002035;28;20293;-66
2021/07/13 09:07:47;;;;;;;7.22;5.07;;;;;;;;;;4998736;28;20062;-66
2021/07/13 09:10:13;;;;;;;8.30;5.22;;;;;;;;;;5000197;28;20041;-66
2021/07/13 09:12:39;;;;;;;;;;;;;;;;;;4999453;28;20047;-66
2021/07/13 09:15:06;;;;;;;7.40;4.68;;;;;;;;;;4993262;28;19965;-66
2021/07/13 09:17:39;;;;;;;5.28;4.05;;;;;;;;;;5008372;28;20042;-66
2021/07/13 09:20:11;;;;;;;5.25;4.15;;;;;;;;;;5008952;28;20038;-66
2021/07/13 09:22:39;;;;;;;4.75;4.13;;;;;;;;;;5008309;28;20061;-66
2021/07/13 09:25:25;;;;;;;6.40;3.80;;;;;;;;;;4995825;28;20042;-66
2021/07/13 09:28:10;;;;;;;10.07;5.38;;;;;;;;;;5002605;28;20516;-66
2021/07/13 09:30:37;;;;;;;7.15;4.22;;;;;;;;;;5002973;28;20868;-66
2021/07/13 09:33:13;;;;;;;5.70;4.45;;;;;;;;;;5005341;28;20038;-66
2021/07/13 09:35:41;;;;;;;;;;;;;;;;;;4998283;28;20070;-66
2021/07/13 09:38:07;;;;;;;5.75;4.53;;;;;;;;;;4996707;28;19921;-66
2021/07/13 09:40:37;;;;;;;4.80;4.22;;;;;;;;;;4999780;28;20038;-66
2021/07/13 09:43:05;;;;;;;4.80;4.30;;;;;;;;;;5007507;28;20092;-66
2021/07/13 09:45:33;;;;;;;7.88;5.00;;;;;;;;;;5006646;28;20049;-66
2021/07/13 09:48:17;;;;;;;8.88;5.20;;;;;;;;;;5001836;28;20077;-66
2021/07/13 09:50:45;;;;;;;6.30;5.18;;;;;;;;;;4991932;28;20039;-64
2021/07/13 09:53:17;;;;;;;7.93;5.68;;;;;;;;;;4993966;28;20092;-66
2021/07/13 09:55:46;;;;;;;6.38;5.13;;;;;;;;;;4987136;28;20100;-68
2021/07/13 09:58:15;;;;;;;9.23;6.38;;;;;;;;;;5003686;28;20046;-65
2021/07/13 10:00:43;;;;;;;7.80;5.07;;;;;;;;;;5004379;28;20049;-66
2021/07/13 10:03:16;;;;;;;11.30;5.30;;;;;;;;;;5010926;28;20045;-65
2021/07/13 10:05:43;;;;;;;5.25;4.75;;;;;;;;;;5005634;28;20547;-65
2021/07/13 10:08:10;;;;;;;6.57;4.95;;;;;;;;;;4989904;28;20096;-66
2021/07/13 10:10:41;;;;;;;8.77;4.97;;;;;;;;;;5007676;28;20080;-66
2021/07/13 10:13:07;;;;;;;7.15;5.47;;;;;;;;;;5007187;28;20041;-66
2021/07/13 10:15:34;;;;;;;7.53;5.13;;;;;;;;;;5004065;28;20052;-65
2021/07/13 10:18:02;;;;;;;6.55;5.40;;;;;;;;;;4988415;28;20082;-66
2021/07/13 10:20:28;;;;;;;6.50;5.53;;;;;;;;;;4987615;28;20038;-66
2021/07/13 10:22:54;;;;;;;;;;;;;;;;;;4988014;28;20041;-66
2021/07/13 10:25:20;;;;;;;6.67;5.63;;;;;;;;;;4985363;28;20281;-66
2021/07/13 10:27:50;;;;;;;9.85;7.32;;;;;;;;;;4987715;28;20297;-66
2021/07/13 10:30:16;;;;;;;10.57;7.20;;;;;;;;;;4988926;28;20472;-66
2021/07/13 10:32:43;;;;;;;;;;;;;;;;;;4989790;28;20117;-66
2021/07/13 10:35:23;;;;;;;11.73;6.63;;;;;;;;;;4991118;28;20033;-64
2021/07/13 10:37:50;;;;;;;7.70;6.30;;;;;;;;;;5002200;28;20531;-65
2021/07/13 10:40:33;;;;;;;9.55;7.40;;;;;;;;;;5001343;28;20042;-64
2021/07/13 10:43:06;;;;;;;10.18;6.50;;;;;;;;;;4998741;28;20413;-66
2021/07/13 10:45:42;;;;;;;13.27;8.05;;;;;;;;;;4998265;28;20037;-65
2021/07/13 10:48:19;;;;;;;8.30;6.77;;;;;;;;;;5007081;28;20037;-65
2021/07/13 10:50:46;;;;;;;9.88;7.55;;;;;;;;;;5010596;28;20272;-65
2021/07/13 10:53:26;;;;;;;12.30;7.13;;;;;;;;;;5007801;28;20184;-64
2021/07/13 10:56:00;;;;;;;10.45;7.00;;;;;;;;;;5008979;28;20057;-64
2021/07/13 10:58:28;;;;;;;9.90;8.50;;;;;;;;;;5009185;28;20053;-66
2021/07/13 11:00:54;;;;;;;11.95;8.57;;;;;;;;;;4986627;28;20042;-64
2021/07/13 11:03:32;;;;;;;10.32;8.60;;;;;;;;;;4996427;28;20049;-66
2021/07/13 11:06:12;;;;;;;14.25;9.05;;;;;;;;;;4988425;28;20128;-67
2021/07/13 11:08:41;;;;;;;9.70;8.70;;;;;;;;;;4987485;28;20053;-66
2021/07/13 11:11:11;;;;;;;13.65;9.23;;;;;;;;;;4987463;28;20443;-65
2021/07/13 11:13:37;;;;;;;13.73;8.10;;;;;;;;;;4987823;28;20038;-67
2021/07/13 11:16:04;;;;;;;12.23;8.90;;;;;;;;;;4987088;28;20061;-68
2021/07/13 11:18:40;;;;;;;11.25;9.13;;;;;;;;;;4987695;28;20081;-65
2021/07/13 11:21:19;;;;;;;11.73;9.02;;;;;;;;;;4988479;28;20541;-65
2021/07/13 11:23:46;;;;;;;10.95;8.43;;;;;;;;;;5006813;28;20050;-65
2021/07/13 11:26:13;;;;;;;9.98;8.23;;;;;;;;;;5008150;28;20049;-65
2021/07/13 11:28:43;;;;;;;11.30;9.00;;;;;;;;;;5004828;28;20091;-65
2021/07/13 11:31:09;;;;;;;12.50;10.05;;;;;;;;;;5011609;28;20045;-66
2021/07/13 11:33:35;;;;;;;;;;;;;;;;;;5018486;28;20045;-65
2021/07/13 11:36:03;;;;;;;10.80;8.95;;;;;;;;;;5026473;28;19916;-66
2021/07/13 11:38:34;;;;;;;14.93;11.75;;;;;;;;;;5021874;28;20046;-65
2021/07/13 11:41:10;;;;;;;11.85;8.90;;;;;;;;;;5008928;28;20030;-65
2021/07/13 11:43:37;;;;;;;11.20;8.60;;;;;;;;;;5019429;28;20037;-63
2021/07/13 11:46:13;;;;;;;10.48;8.38;;;;;;;;;;5001576;28;20049;-66
2021/07/13 11:48:39;;;;;;;12.55;9.48;;;;;;;;;;4987254;28;20490;-64
2021/07/13 11:51:08;;;;;;;13.82;8.93;;;;;;;;;;4987523;28;20046;-65
2021/07/13 11:53:34;;;;;;;10.35;8.63;;;;;;;;;;4980452;28;20164;-66
2021/07/13 11:56:00;;;;;;;11.68;9.82;;;;;;;;;;4985924;28;20042;-64
2021/07/13 11:58:27;;;;;;;13.98;10.70;;;;;;;;;;4991443;28;20085;-65
2021/07/13 12:00:53;;;;;;;12.70;9.18;;;;;;;;;;4987442;28;20129;-65
2021/07/13 12:03:19;;;;;;;;;;;;;;;;;;4986612;28;20145;-66
2021/07/13 12:05:45;;;;;;;14.43;10.18;;;;;;;;;;4986580;28;19925;-65
2021/07/13 12:08:11;;;;;;;;;;;;;;;;;;4986986;28;20038;-65
2021/07/13 12:10:37;;;;;;;12.52;10.27;;;;;;;;;;4987499;28;19989;-65
2021/07/13 12:13:03;;;;;;;15.75;10.60;;;;;;;;;;4986458;28;20038;-62
2021/07/13 12:15:29;;;;;;;14.20;11.20;;;;;;;;;;4989575;28;20041;-64
2021/07/13 12:17:55;;;;;;;;;;;;;;;;;;4993574;28;20041;-65
2021/07/13 12:20:21;;;;;;;12.75;10.27;;;;;;;;;;4999647;28;19921;-65
2021/07/13 12:22:47;;;;;;;;;;;;;;;;;;5002710;28;20042;-65
2021/07/13 12:25:13;;;;;;;13.35;9.80;;;;;;;;;;4993679;28;19925;-65
2021/07/13 12:27:39;;;;;;;15.00;10.10;;;;;;;;;;4990856;28;20129;-65
2021/07/13 12:30:07;;;;;;;;;;;;;;;;;;4991347;28;20069;-65
2021/07/13 12:32:33;;;;;;;11.80;9.70;;;;;;;;;;5008781;28;20400;-64
2021/07/13 12:34:59;;;;;;;;;;;;;;;;;;5020896;28;20100;-65
2021/07/13 12:37:26;;;;;;;12.68;9.55;;;;;;;;;;5021051;28;19957;-65
2021/07/13 12:40:01;;;;;;;16.60;10.45;;;;;;;;;;5012850;28;20072;-65
2021/07/13 12:42:28;;;;;;;12.45;10.23;;;;;;;;;;5028681;28;20084;-63
2021/07/13 12:44:55;;;;;;;11.90;9.68;;;;;;;;;;5019278;28;20041;-64
2021/07/13 12:47:27;;;;;;;18.38;11.63;;;;;;;;;;5008831;28;20048;-64
2021/07/13 12:50:07;;;;;;;18.17;11.20;;;;;;;;;;5010451;28;20041;-64
2021/07/13 12:52:42;;;;;;;18.60;12.65;;;;;;;;;;5008198;28;20053;-65
2021/07/13 12:55:09;;;;;;;15.95;12.43;;;;;;;;;;5009031;28;20038;-63
2021/07/13 12:57:38;;;;;;;16.02;13.02;;;;;;;;;;5022383;28;20052;-63
2021/07/13 13:00:11;;;;;;;17.42;12.80;;;;;;;;;;5011457;28;20041;-66
2021/07/13 13:02:38;;;;;;;18.45;13.13;;;;;;;;;;5008128;28;20124;-64
2021/07/13 13:05:05;;;;;;;18.23;14.15;;;;;;;;;;5008769;28;20042;-64
2021/07/13 13:07:31;;;;;;;23.13;14.77;;;;;;;;;;5008558;28;20046;-64
2021/07/13 13:09:57;;;;;;;19.13;14.23;;;;;;;;;;5009350;28;20041;-66
2021/07/13 13:12:23;;;;;;;;;;;;;;;;;;4995801;28;20092;-66
2021/07/13 13:14:50;;;;;;;14.73;11.40;;;;;;;;;;4993177;28;19922;-64
2021/07/13 13:17:16;;;;;;;16.63;11.70;;;;;;;;;;4988937;28;20384;-63
2021/07/13 13:19:44;;;;;;;14.98;11.68;;;;;;;;;;4989740;28;20038;-62
2021/07/13 13:22:10;;;;;;;20.38;12.18;;;;;;;;;;4988603;28;20085;-63
2021/07/13 13:24:37;;;;;;;21.13;11.00;;;;;;;;;;4989267;28;20660;-63
2021/07/13 13:27:04;;;;;;;15.32;11.68;;;;;;;;;;4988909;28;20054;-62
2021/07/13 13:29:33;;;;;;;19.50;13.23;;;;;;;;;;4987766;28;20054;-63
2021/07/13 13:32:00;;;;;;;17.50;12.50;;;;;;;;;;4988284;28;20617;-63
2021/07/13 13:34:26;;;;;;;15.63;11.68;;;;;;;;;;5001605;28;20042;-64
2021/07/13 13:36:55;;;;;;;18.08;13.18;;;;;;;;;;5009148;28;20220;-63
2021/07/13 13:39:21;;;;;;;17.70;12.90;;;;;;;;;;5007738;28;20037;-64
2021/07/13 13:41:51;;;;;;;17.42;12.82;;;;;;;;;;5002802;28;20109;-64
2021/07/13 13:44:19;;;;;;;18.33;12.82;;;;;;;;;;4993902;28;20089;-63
2021/07/13 13:46:45;;;;;;;17.48;13.52;;;;;;;;;;4989334;28;20057;-63
2021/07/13 13:49:11;;;;;;;20.95;14.45;;;;;;;;;;4989511;28;20034;-64
2021/07/13 13:51:37;;;;;;;15.27;12.05;;;;;;;;;;4989095;28;20077;-64
2021/07/13 13:54:03;;;;;;;32.65;24.38;;;;;;;;;;4988687;28;20042;-63
2021/07/13 13:56:30;;;;;;;19.65;13.68;;;;;;;;;;4993811;28;20121;-66
2021/07/13 13:58:56;;;;;;;18.48;12.00;;;;;;;;;;5006930;28;20065;-66
2021/07/13 14:01:23;;;;;;;16.33;11.90;;;;;;;;;;5013977;28;20040;-67
2021/07/13 14:03:49;;;;;;;22.00;13.00;;;;;;;;;;5010860;28;20124;-67
2021/07/13 14:06:16;;;;;;;15.45;11.10;;;;;;;;;;5027982;28;20451;-65
2021/07/13 14:08:43;;;;;;;14.20;11.38;;;;;;;;;;5024326;28;20049;-66
2021/07/13 14:11:10;;;;;;;13.50;10.85;;;;;;;;;;5027288;28;20045;-65
2021/07/13 14:13:36;;;;;;;15.77;10.80;;;;;;;;;;5028082;28;20057;-63
2021/07/13 14:16:03;;;;;;;14.23;11.00;;;;;;;;;;4999615;28;20115;-64
2021/07/13 14:18:30;;;;;;;14.27;10.55;;;;;;;;;;4986904;28;20175;-64
2021/07/13 14:20:57;;;;;;;14.05;11.07;;;;;;;;;;4996157;28;20041;-63
2021/07/13 14:23:23;;;;;;;17.63;11.65;;;;;;;;;;4988637;28;20114;-64
2021/07/13 14:25:50;;;;;;;;;;;;;;;;;;4989422;28;20054;-64
2021/07/13 14:28:16;;;;;;;15.93;12.43;;;;;;;;;;4986205;28;19921;-64
2021/07/13 14:30:41;;;;;;;16.45;12.93;;;;;;;;;;4985494;28;20582;-62
2021/07/13 14:33:07;;;;;;;;;;;;;;;;;;4996913;28;20513;-62
2021/07/13 14:35:33;;;;;;;20.10;11.07;;;;;;;;;;4993489;28;19917;-63
2021/07/13 14:38:00;;;;;;;16.75;12.10;;;;;;;;;;4984679;28;20834;-63
2021/07/13 14:40:26;;;;;;;14.70;11.40;;;;;;;;;;4969458;28;20557;-64
2021/07/13 14:42:52;;;;;;;;;;;;;;;;;;4987432;28;20520;-63
2021/07/13 14:45:18;;;;;;;14.15;10.85;;;;;;;;;;4986835;28;19922;-64
2021/07/13 14:47:44;;;;;;;16.40;11.45;;;;;;;;;;4987309;28;20052;-64
2021/07/13 14:50:10;;;;;;;14.43;10.98;;;;;;;;;;4987447;28;20035;-63